sensor_id;sensor_type;location;lat;lon;timestamp;P1;durP1;ratioP1;P2;durP2;ratioP2
48665;SDS011;34452;50.796;4.994;2023-02-08T00:00:25;22.90;;;12.90;;
48665;SDS011;34452;50.796;4.994;2023-02-08T00:02:50;23.02;;;12.55;;
48665;SDS011;34452;50.796;4.994;2023-02-08T00:05:17;21.02;;;13.00;;
48665;SDS011;34452;50.796;4.994;2023-02-08T00:07:43;25.15;;;13.80;;
48665;SDS011;34452;50.796;4.994;2023-02-08T00:10:09;23.85;;;13.95;;
48665;SDS011;34452;50.796;4.994;2023-02-08T00:12:35;27.23;;;14.40;;
48665;SDS011;34452;50.796;4.994;2023-02-08T00:17:27;26.23;;;14.77;;
48665;SDS011;34452;50.796;4.994;2023-02-08T00:19:53;27.42;;;15.13;;
48665;SDS011;34452;50.796;4.994;2023-02-08T00:22:19;22.10;;;13.63;;
48665;SDS011;34452;50.796;4.994;2023-02-08T00:24:44;31.48;;;14.77;;
48665;SDS011;34452;50.796;4.994;2023-02-08T00:27:10;23.83;;;12.52;;
48665;SDS011;34452;50.796;4.994;2023-02-08T00:29:36;28.25;;;12.65;;
48665;SDS011;34452;50.796;4.994;2023-02-08T00:32:02;25.65;;;13.15;;
48665;SDS011;34452;50.796;4.994;2023-02-08T00:34:28;23.90;;;13.07;;
48665;SDS011;34452;50.796;4.994;2023-02-08T00:36:54;25.55;;;12.73;;
48665;SDS011;34452;50.796;4.994;2023-02-08T00:39:19;28.27;;;15.75;;
48665;SDS011;34452;50.796;4.994;2023-02-08T00:41:46;30.15;;;14.45;;
48665;SDS011;34452;50.796;4.994;2023-02-08T00:44:12;29.92;;;16.48;;
48665;SDS011;34452;50.796;4.994;2023-02-08T00:46:37;37.38;;;17.70;;
48665;SDS011;34452;50.796;4.994;2023-02-08T00:49:03;27.95;;;14.63;;
48665;SDS011;34452;50.796;4.994;2023-02-08T00:51:29;26.02;;;13.63;;
48665;SDS011;34452;50.796;4.994;2023-02-08T00:53:55;29.33;;;14.82;;
48665;SDS011;34452;50.796;4.994;2023-02-08T00:56:20;31.35;;;16.10;;
48665;SDS011;34452;50.796;4.994;2023-02-08T00:58:46;28.88;;;15.27;;
48665;SDS011;34452;50.796;4.994;2023-02-08T01:01:12;28.10;;;15.00;;
48665;SDS011;34452;50.796;4.994;2023-02-08T01:03:38;25.30;;;15.25;;
48665;SDS011;34452;50.796;4.994;2023-02-08T01:06:06;24.67;;;14.35;;
48665;SDS011;34452;50.796;4.994;2023-02-08T01:08:34;21.42;;;12.95;;
48665;SDS011;34452;50.796;4.994;2023-02-08T01:13:43;22.75;;;13.38;;
48665;SDS011;34452;50.796;4.994;2023-02-08T01:16:11;26.95;;;14.48;;
48665;SDS011;34452;50.796;4.994;2023-02-08T01:18:39;23.63;;;12.23;;
48665;SDS011;34452;50.796;4.994;2023-02-08T01:21:08;24.73;;;13.80;;
48665;SDS011;34452;50.796;4.994;2023-02-08T01:23:35;24.13;;;13.00;;
48665;SDS011;34452;50.796;4.994;2023-02-08T01:26:02;28.00;;;14.52;;
48665;SDS011;34452;50.796;4.994;2023-02-08T01:28:28;26.73;;;14.45;;
48665;SDS011;34452;50.796;4.994;2023-02-08T01:30:54;24.88;;;13.85;;
48665;SDS011;34452;50.796;4.994;2023-02-08T01:33:20;29.52;;;16.63;;
48665;SDS011;34452;50.796;4.994;2023-02-08T01:35:48;29.00;;;15.68;;
48665;SDS011;34452;50.796;4.994;2023-02-08T01:38:15;28.27;;;15.07;;
48665;SDS011;34452;50.796;4.994;2023-02-08T01:40:40;28.27;;;15.00;;
48665;SDS011;34452;50.796;4.994;2023-02-08T01:45:44;26.63;;;15.55;;
48665;SDS011;34452;50.796;4.994;2023-02-08T01:48:11;29.38;;;16.13;;
48665;SDS011;34452;50.796;4.994;2023-02-08T01:50:44;30.88;;;15.55;;
48665;SDS011;34452;50.796;4.994;2023-02-08T01:53:28;34.33;;;16.45;;
48665;SDS011;34452;50.796;4.994;2023-02-08T01:55:56;24.92;;;14.85;;
48665;SDS011;34452;50.796;4.994;2023-02-08T01:58:26;29.58;;;16.35;;
48665;SDS011;34452;50.796;4.994;2023-02-08T02:00:54;30.67;;;14.35;;
48665;SDS011;34452;50.796;4.994;2023-02-08T02:03:20;38.88;;;16.90;;
48665;SDS011;34452;50.796;4.994;2023-02-08T02:05:49;35.80;;;18.30;;
48665;SDS011;34452;50.796;4.994;2023-02-08T02:08:19;26.23;;;15.32;;
48665;SDS011;34452;50.796;4.994;2023-02-08T02:10:46;26.05;;;14.40;;
48665;SDS011;34452;50.796;4.994;2023-02-08T02:13:16;27.50;;;14.88;;
48665;SDS011;34452;50.796;4.994;2023-02-08T02:15:45;30.73;;;16.20;;
48665;SDS011;34452;50.796;4.994;2023-02-08T02:18:12;26.75;;;15.25;;
48665;SDS011;34452;50.796;4.994;2023-02-08T02:41:22;35.28;;;15.82;;
48665;SDS011;34452;50.796;4.994;2023-02-08T02:44:45;32.00;;;14.55;;
48665;SDS011;34452;50.796;4.994;2023-02-08T02:47:35;25.75;;;14.18;;
48665;SDS011;34452;50.796;4.994;2023-02-08T02:53:17;28.02;;;14.77;;
48665;SDS011;34452;50.796;4.994;2023-02-08T02:55:46;27.50;;;14.20;;
48665;SDS011;34452;50.796;4.994;2023-02-08T02:58:15;31.35;;;15.82;;
48665;SDS011;34452;50.796;4.994;2023-02-08T03:00:43;28.40;;;14.07;;
48665;SDS011;34452;50.796;4.994;2023-02-08T03:03:34;21.90;;;12.77;;
48665;SDS011;34452;50.796;4.994;2023-02-08T03:06:02;28.35;;;14.90;;
48665;SDS011;34452;50.796;4.994;2023-02-08T03:08:37;22.95;;;13.75;;
48665;SDS011;34452;50.796;4.994;2023-02-08T03:11:17;29.45;;;14.68;;
48665;SDS011;34452;50.796;4.994;2023-02-08T03:22:18;24.40;;;14.45;;
48665;SDS011;34452;50.796;4.994;2023-02-08T03:24:52;24.33;;;14.10;;
48665;SDS011;34452;50.796;4.994;2023-02-08T03:27:23;27.05;;;14.32;;
48665;SDS011;34452;50.796;4.994;2023-02-08T03:30:10;25.98;;;14.40;;
48665;SDS011;34452;50.796;4.994;2023-02-08T03:32:42;22.48;;;13.38;;
48665;SDS011;34452;50.796;4.994;2023-02-08T03:35:34;21.95;;;13.13;;
48665;SDS011;34452;50.796;4.994;2023-02-08T03:40:52;23.63;;;13.32;;
48665;SDS011;34452;50.796;4.994;2023-02-08T03:43:24;20.90;;;12.48;;
48665;SDS011;34452;50.796;4.994;2023-02-08T03:46:02;27.83;;;13.48;;
48665;SDS011;34452;50.796;4.994;2023-02-08T03:48:50;29.20;;;14.63;;
48665;SDS011;34452;50.796;4.994;2023-02-08T03:51:20;30.27;;;14.65;;
48665;SDS011;34452;50.796;4.994;2023-02-08T03:53:48;28.40;;;13.50;;
48665;SDS011;34452;50.796;4.994;2023-02-08T03:56:19;25.23;;;13.75;;
48665;SDS011;34452;50.796;4.994;2023-02-08T03:58:53;29.98;;;14.35;;
48665;SDS011;34452;50.796;4.994;2023-02-08T04:01:26;26.48;;;13.40;;
48665;SDS011;34452;50.796;4.994;2023-02-08T04:03:56;31.05;;;14.60;;
48665;SDS011;34452;50.796;4.994;2023-02-08T04:06:23;26.55;;;14.27;;
48665;SDS011;34452;50.796;4.994;2023-02-08T04:08:49;27.42;;;14.05;;
48665;SDS011;34452;50.796;4.994;2023-02-08T04:11:15;27.55;;;13.68;;
48665;SDS011;34452;50.796;4.994;2023-02-08T04:13:41;26.83;;;14.77;;
48665;SDS011;34452;50.796;4.994;2023-02-08T04:16:08;24.08;;;13.75;;
48665;SDS011;34452;50.796;4.994;2023-02-08T04:18:35;23.65;;;12.70;;
48665;SDS011;34452;50.796;4.994;2023-02-08T04:21:01;27.25;;;13.82;;
48665;SDS011;34452;50.796;4.994;2023-02-08T04:23:27;22.98;;;13.52;;
48665;SDS011;34452;50.796;4.994;2023-02-08T04:25:53;25.23;;;13.93;;
48665;SDS011;34452;50.796;4.994;2023-02-08T04:28:18;35.75;;;13.20;;
48665;SDS011;34452;50.796;4.994;2023-02-08T04:30:44;25.98;;;14.20;;
48665;SDS011;34452;50.796;4.994;2023-02-08T04:33:10;24.75;;;14.20;;
48665;SDS011;34452;50.796;4.994;2023-02-08T04:35:37;29.63;;;14.27;;
48665;SDS011;34452;50.796;4.994;2023-02-08T04:38:03;23.88;;;14.52;;
48665;SDS011;34452;50.796;4.994;2023-02-08T04:40:28;36.67;;;14.45;;
48665;SDS011;34452;50.796;4.994;2023-02-08T04:42:55;28.70;;;14.25;;
48665;SDS011;34452;50.796;4.994;2023-02-08T04:45:21;27.70;;;15.85;;
48665;SDS011;34452;50.796;4.994;2023-02-08T04:47:46;26.73;;;14.68;;
48665;SDS011;34452;50.796;4.994;2023-02-08T04:50:12;30.63;;;15.18;;
48665;SDS011;34452;50.796;4.994;2023-02-08T04:52:38;29.70;;;16.90;;
48665;SDS011;34452;50.796;4.994;2023-02-08T04:55:04;27.85;;;15.30;;
48665;SDS011;34452;50.796;4.994;2023-02-08T04:57:30;34.30;;;15.38;;
48665;SDS011;34452;50.796;4.994;2023-02-08T04:59:55;33.00;;;16.17;;
48665;SDS011;34452;50.796;4.994;2023-02-08T05:02:21;28.20;;;14.52;;
48665;SDS011;34452;50.796;4.994;2023-02-08T05:04:47;30.42;;;15.75;;
48665;SDS011;34452;50.796;4.994;2023-02-08T05:07:12;32.25;;;16.42;;
48665;SDS011;34452;50.796;4.994;2023-02-08T05:09:38;27.52;;;16.25;;
48665;SDS011;34452;50.796;4.994;2023-02-08T05:12:04;34.72;;;16.95;;
48665;SDS011;34452;50.796;4.994;2023-02-08T05:14:30;30.83;;;17.05;;
48665;SDS011;34452;50.796;4.994;2023-02-08T05:16:55;28.33;;;15.52;;
48665;SDS011;34452;50.796;4.994;2023-02-08T05:19:21;30.83;;;16.25;;
48665;SDS011;34452;50.796;4.994;2023-02-08T05:21:47;27.13;;;14.10;;
48665;SDS011;34452;50.796;4.994;2023-02-08T05:24:12;28.80;;;14.95;;
48665;SDS011;34452;50.796;4.994;2023-02-08T05:26:39;30.15;;;14.40;;
48665;SDS011;34452;50.796;4.994;2023-02-08T05:29:05;33.72;;;15.95;;
48665;SDS011;34452;50.796;4.994;2023-02-08T05:31:30;37.05;;;15.68;;
48665;SDS011;34452;50.796;4.994;2023-02-08T05:33:56;34.85;;;15.07;;
48665;SDS011;34452;50.796;4.994;2023-02-08T05:36:22;35.70;;;16.85;;
48665;SDS011;34452;50.796;4.994;2023-02-08T05:38:48;31.48;;;15.10;;
48665;SDS011;34452;50.796;4.994;2023-02-08T05:41:15;34.88;;;18.10;;
48665;SDS011;34452;50.796;4.994;2023-02-08T05:43:41;40.15;;;18.63;;
48665;SDS011;34452;50.796;4.994;2023-02-08T05:46:07;34.47;;;18.25;;
48665;SDS011;34452;50.796;4.994;2023-02-08T05:48:33;35.90;;;17.42;;
48665;SDS011;34452;50.796;4.994;2023-02-08T05:50:58;36.75;;;18.27;;
48665;SDS011;34452;50.796;4.994;2023-02-08T05:53:25;29.60;;;15.73;;
48665;SDS011;34452;50.796;4.994;2023-02-08T05:55:51;40.97;;;18.35;;
48665;SDS011;34452;50.796;4.994;2023-02-08T06:00:43;29.77;;;16.83;;
48665;SDS011;34452;50.796;4.994;2023-02-08T06:03:09;36.42;;;20.02;;
48665;SDS011;34452;50.796;4.994;2023-02-08T06:05:36;31.13;;;16.92;;
48665;SDS011;34452;50.796;4.994;2023-02-08T06:08:03;28.40;;;16.58;;
48665;SDS011;34452;50.796;4.994;2023-02-08T06:10:29;31.23;;;16.48;;
48665;SDS011;34452;50.796;4.994;2023-02-08T06:12:55;31.25;;;16.75;;
48665;SDS011;34452;50.796;4.994;2023-02-08T06:15:20;31.52;;;16.73;;
48665;SDS011;34452;50.796;4.994;2023-02-08T06:17:46;34.95;;;17.00;;
48665;SDS011;34452;50.796;4.994;2023-02-08T06:20:12;32.70;;;17.90;;
48665;SDS011;34452;50.796;4.994;2023-02-08T06:22:38;36.05;;;16.80;;
48665;SDS011;34452;50.796;4.994;2023-02-08T06:25:04;29.30;;;16.58;;
48665;SDS011;34452;50.796;4.994;2023-02-08T06:27:29;36.97;;;16.67;;
48665;SDS011;34452;50.796;4.994;2023-02-08T06:29:55;30.30;;;16.50;;
48665;SDS011;34452;50.796;4.994;2023-02-08T06:32:21;26.48;;;16.55;;
48665;SDS011;34452;50.796;4.994;2023-02-08T06:34:47;29.33;;;15.50;;
48665;SDS011;34452;50.796;4.994;2023-02-08T06:37:14;27.42;;;14.43;;
48665;SDS011;34452;50.796;4.994;2023-02-08T06:39:41;29.00;;;15.88;;
48665;SDS011;34452;50.796;4.994;2023-02-08T06:42:07;33.65;;;16.90;;
48665;SDS011;34452;50.796;4.994;2023-02-08T06:44:33;32.38;;;14.57;;
48665;SDS011;34452;50.796;4.994;2023-02-08T06:46:58;30.05;;;16.23;;
48665;SDS011;34452;50.796;4.994;2023-02-08T06:49:24;29.45;;;15.65;;
48665;SDS011;34452;50.796;4.994;2023-02-08T06:51:50;30.05;;;16.15;;
48665;SDS011;34452;50.796;4.994;2023-02-08T06:54:16;26.65;;;15.80;;
48665;SDS011;34452;50.796;4.994;2023-02-08T06:56:42;32.88;;;15.90;;
48665;SDS011;34452;50.796;4.994;2023-02-08T07:01:33;27.83;;;14.00;;
48665;SDS011;34452;50.796;4.994;2023-02-08T07:03:59;29.17;;;15.55;;
48665;SDS011;34452;50.796;4.994;2023-02-08T07:06:25;25.38;;;15.50;;
48665;SDS011;34452;50.796;4.994;2023-02-08T07:08:50;24.70;;;15.00;;
48665;SDS011;34452;50.796;4.994;2023-02-08T07:11:17;26.33;;;14.77;;
48665;SDS011;34452;50.796;4.994;2023-02-08T07:13:46;27.23;;;14.88;;
48665;SDS011;34452;50.796;4.994;2023-02-08T07:16:12;29.10;;;15.02;;
48665;SDS011;34452;50.796;4.994;2023-02-08T07:18:38;24.55;;;13.48;;
48665;SDS011;34452;50.796;4.994;2023-02-08T07:21:04;31.50;;;14.05;;
48665;SDS011;34452;50.796;4.994;2023-02-08T07:23:31;28.98;;;15.23;;
48665;SDS011;34452;50.796;4.994;2023-02-08T07:25:58;25.85;;;14.15;;
48665;SDS011;34452;50.796;4.994;2023-02-08T07:28:25;23.58;;;13.38;;
48665;SDS011;34452;50.796;4.994;2023-02-08T07:30:51;27.08;;;13.02;;
48665;SDS011;34452;50.796;4.994;2023-02-08T07:33:17;29.05;;;14.80;;
48665;SDS011;34452;50.796;4.994;2023-02-08T07:35:43;25.13;;;14.05;;
48665;SDS011;34452;50.796;4.994;2023-02-08T07:38:09;28.98;;;13.68;;
48665;SDS011;34452;50.796;4.994;2023-02-08T07:40:34;26.95;;;15.27;;
48665;SDS011;34452;50.796;4.994;2023-02-08T07:43:00;24.63;;;14.05;;
48665;SDS011;34452;50.796;4.994;2023-02-08T07:45:26;24.05;;;13.70;;
48665;SDS011;34452;50.796;4.994;2023-02-08T07:47:52;23.08;;;13.60;;
48665;SDS011;34452;50.796;4.994;2023-02-08T07:50:17;24.65;;;13.35;;
48665;SDS011;34452;50.796;4.994;2023-02-08T07:52:43;21.40;;;12.10;;
48665;SDS011;34452;50.796;4.994;2023-02-08T07:55:10;26.10;;;11.38;;
48665;SDS011;34452;50.796;4.994;2023-02-08T07:57:41;20.73;;;10.68;;
48665;SDS011;34452;50.796;4.994;2023-02-08T08:00:08;23.55;;;10.88;;
48665;SDS011;34452;50.796;4.994;2023-02-08T08:02:34;17.85;;;10.68;;
48665;SDS011;34452;50.796;4.994;2023-02-08T08:05:00;18.23;;;10.88;;
48665;SDS011;34452;50.796;4.994;2023-02-08T08:07:25;21.65;;;11.77;;
48665;SDS011;34452;50.796;4.994;2023-02-08T08:09:51;28.52;;;12.57;;
48665;SDS011;34452;50.796;4.994;2023-02-08T08:12:17;22.20;;;9.95;;
48665;SDS011;34452;50.796;4.994;2023-02-08T08:14:43;20.70;;;10.75;;
48665;SDS011;34452;50.796;4.994;2023-02-08T08:17:08;16.63;;;9.65;;
48665;SDS011;34452;50.796;4.994;2023-02-08T08:19:34;18.80;;;10.27;;
48665;SDS011;34452;50.796;4.994;2023-02-08T08:22:00;21.63;;;9.95;;
48665;SDS011;34452;50.796;4.994;2023-02-08T08:24:26;20.10;;;11.27;;
48665;SDS011;34452;50.796;4.994;2023-02-08T08:26:51;21.15;;;10.35;;
48665;SDS011;34452;50.796;4.994;2023-02-08T08:29:17;21.58;;;10.57;;
48665;SDS011;34452;50.796;4.994;2023-02-08T08:31:43;18.73;;;10.32;;
48665;SDS011;34452;50.796;4.994;2023-02-08T08:34:08;21.77;;;11.77;;
48665;SDS011;34452;50.796;4.994;2023-02-08T08:36:34;23.10;;;11.60;;
48665;SDS011;34452;50.796;4.994;2023-02-08T08:39:00;20.75;;;9.98;;
48665;SDS011;34452;50.796;4.994;2023-02-08T08:41:26;21.73;;;10.65;;
48665;SDS011;34452;50.796;4.994;2023-02-08T08:43:52;25.23;;;10.43;;
48665;SDS011;34452;50.796;4.994;2023-02-08T08:46:18;17.48;;;9.43;;
48665;SDS011;34452;50.796;4.994;2023-02-08T08:48:44;19.40;;;10.15;;
48665;SDS011;34452;50.796;4.994;2023-02-08T08:53:36;15.63;;;8.82;;
48665;SDS011;34452;50.796;4.994;2023-02-08T08:56:02;21.10;;;10.32;;
48665;SDS011;34452;50.796;4.994;2023-02-08T08:58:29;19.27;;;11.20;;
48665;SDS011;34452;50.796;4.994;2023-02-08T09:00:55;23.42;;;10.63;;
48665;SDS011;34452;50.796;4.994;2023-02-08T09:03:23;17.73;;;10.18;;
48665;SDS011;34452;50.796;4.994;2023-02-08T09:08:14;15.38;;;9.25;;
48665;SDS011;34452;50.796;4.994;2023-02-08T09:10:40;21.98;;;10.20;;
48665;SDS011;34452;50.796;4.994;2023-02-08T09:13:06;23.50;;;11.10;;
48665;SDS011;34452;50.796;4.994;2023-02-08T09:15:32;19.58;;;10.30;;
48665;SDS011;34452;50.796;4.994;2023-02-08T09:17:58;19.02;;;10.38;;
48665;SDS011;34452;50.796;4.994;2023-02-08T09:20:23;17.08;;;9.57;;
48665;SDS011;34452;50.796;4.994;2023-02-08T09:22:49;20.42;;;10.00;;
48665;SDS011;34452;50.796;4.994;2023-02-08T09:25:17;17.65;;;9.40;;
48665;SDS011;34452;50.796;4.994;2023-02-08T09:27:42;18.85;;;9.43;;
48665;SDS011;34452;50.796;4.994;2023-02-08T09:30:08;18.42;;;9.65;;
48665;SDS011;34452;50.796;4.994;2023-02-08T09:32:34;17.25;;;9.45;;
48665;SDS011;34452;50.796;4.994;2023-02-08T09:35:02;17.95;;;9.07;;
48665;SDS011;34452;50.796;4.994;2023-02-08T09:37:28;14.63;;;9.48;;
48665;SDS011;34452;50.796;4.994;2023-02-08T09:39:54;17.58;;;8.57;;
48665;SDS011;34452;50.796;4.994;2023-02-08T09:42:28;22.85;;;9.68;;
48665;SDS011;34452;50.796;4.994;2023-02-08T09:48:19;18.40;;;9.27;;
48665;SDS011;34452;50.796;4.994;2023-02-08T09:50:51;17.77;;;8.52;;
48665;SDS011;34452;50.796;4.994;2023-02-08T09:56:18;19.17;;;8.27;;
48665;SDS011;34452;50.796;4.994;2023-02-08T09:58:51;16.42;;;8.60;;
48665;SDS011;34452;50.796;4.994;2023-02-08T10:03:47;14.30;;;7.97;;
48665;SDS011;34452;50.796;4.994;2023-02-08T10:06:18;15.07;;;8.32;;
48665;SDS011;34452;50.796;4.994;2023-02-08T10:08:45;12.15;;;7.30;;
48665;SDS011;34452;50.796;4.994;2023-02-08T10:14:20;18.10;;;8.65;;
48665;SDS011;34452;50.796;4.994;2023-02-08T10:20:21;16.23;;;7.50;;
48665;SDS011;34452;50.796;4.994;2023-02-08T10:34:19;19.67;;;7.88;;
48665;SDS011;34452;50.796;4.994;2023-02-08T10:39:51;11.80;;;5.47;;
48665;SDS011;34452;50.796;4.994;2023-02-08T10:42:19;12.88;;;5.40;;
48665;SDS011;34452;50.796;4.994;2023-02-08T10:53:13;11.18;;;5.15;;
48665;SDS011;34452;50.796;4.994;2023-02-08T10:55:42;8.68;;;4.70;;
48665;SDS011;34452;50.796;4.994;2023-02-08T10:58:12;8.68;;;4.78;;
48665;SDS011;34452;50.796;4.994;2023-02-08T11:00:42;9.13;;;4.30;;
48665;SDS011;34452;50.796;4.994;2023-02-08T11:05:52;9.48;;;4.50;;
48665;SDS011;34452;50.796;4.994;2023-02-08T11:08:20;10.55;;;5.22;;
48665;SDS011;34452;50.796;4.994;2023-02-08T11:10:55;11.10;;;4.70;;
48665;SDS011;34452;50.796;4.994;2023-02-08T11:13:25;8.30;;;4.53;;
48665;SDS011;34452;50.796;4.994;2023-02-08T11:15:57;9.00;;;4.53;;
48665;SDS011;34452;50.796;4.994;2023-02-08T11:18:27;6.85;;;3.88;;
48665;SDS011;34452;50.796;4.994;2023-02-08T11:20:58;7.05;;;3.78;;
48665;SDS011;34452;50.796;4.994;2023-02-08T11:23:28;12.65;;;4.28;;
48665;SDS011;34452;50.796;4.994;2023-02-08T11:28:42;8.10;;;4.30;;
48665;SDS011;34452;50.796;4.994;2023-02-08T11:36:34;7.60;;;3.47;;
48665;SDS011;34452;50.796;4.994;2023-02-08T11:39:03;7.80;;;4.07;;
48665;SDS011;34452;50.796;4.994;2023-02-08T11:41:42;5.43;;;3.22;;
48665;SDS011;34452;50.796;4.994;2023-02-08T11:44:12;7.47;;;3.97;;
48665;SDS011;34452;50.796;4.994;2023-02-08T11:46:46;7.18;;;3.53;;
48665;SDS011;34452;50.796;4.994;2023-02-08T11:52:00;6.57;;;3.38;;
48665;SDS011;34452;50.796;4.994;2023-02-08T12:00:15;6.45;;;3.22;;
48665;SDS011;34452;50.796;4.994;2023-02-08T12:02:42;5.95;;;3.47;;
48665;SDS011;34452;50.796;4.994;2023-02-08T12:05:12;5.28;;;3.00;;
48665;SDS011;34452;50.796;4.994;2023-02-08T12:10:45;6.80;;;3.47;;
48665;SDS011;34452;50.796;4.994;2023-02-08T12:19:05;4.95;;;2.72;;
48665;SDS011;34452;50.796;4.994;2023-02-08T12:24:35;6.85;;;2.97;;
48665;SDS011;34452;50.796;4.994;2023-02-08T12:38:54;7.03;;;3.20;;
48665;SDS011;34452;50.796;4.994;2023-02-08T12:47:16;8.60;;;2.90;;
48665;SDS011;34452;50.796;4.994;2023-02-08T12:52:50;6.60;;;3.28;;
48665;SDS011;34452;50.796;4.994;2023-02-08T12:55:23;8.57;;;2.67;;
48665;SDS011;34452;50.796;4.994;2023-02-08T12:57:55;8.73;;;2.65;;
48665;SDS011;34452;50.796;4.994;2023-02-08T13:00:24;4.40;;;2.90;;
48665;SDS011;34452;50.796;4.994;2023-02-08T13:05:50;5.97;;;3.08;;
48665;SDS011;34452;50.796;4.994;2023-02-08T13:11:01;8.90;;;2.65;;
48665;SDS011;34452;50.796;4.994;2023-02-08T13:13:33;8.90;;;2.50;;
48665;SDS011;34452;50.796;4.994;2023-02-08T13:16:04;5.13;;;2.45;;
48665;SDS011;34452;50.796;4.994;2023-02-08T13:18:34;5.80;;;3.20;;
48665;SDS011;34452;50.796;4.994;2023-02-08T13:21:07;4.35;;;2.20;;
48665;SDS011;34452;50.796;4.994;2023-02-08T13:23:40;3.72;;;2.40;;
48665;SDS011;34452;50.796;4.994;2023-02-08T13:26:20;4.75;;;2.67;;
48665;SDS011;34452;50.796;4.994;2023-02-08T13:28:51;8.68;;;3.05;;
48665;SDS011;34452;50.796;4.994;2023-02-08T13:31:21;5.55;;;2.63;;
48665;SDS011;34452;50.796;4.994;2023-02-08T13:34:05;4.93;;;2.72;;
48665;SDS011;34452;50.796;4.994;2023-02-08T13:36:39;6.55;;;3.30;;
48665;SDS011;34452;50.796;4.994;2023-02-08T13:39:24;5.15;;;2.50;;
48665;SDS011;34452;50.796;4.994;2023-02-08T13:41:57;6.38;;;3.10;;
48665;SDS011;34452;50.796;4.994;2023-02-08T13:44:26;6.85;;;2.55;;
48665;SDS011;34452;50.796;4.994;2023-02-08T13:46:56;5.55;;;2.97;;
48665;SDS011;34452;50.796;4.994;2023-02-08T13:52:07;8.23;;;2.75;;
48665;SDS011;34452;50.796;4.994;2023-02-08T13:54:34;5.07;;;2.58;;
48665;SDS011;34452;50.796;4.994;2023-02-08T13:57:01;8.20;;;3.00;;
48665;SDS011;34452;50.796;4.994;2023-02-08T13:59:38;5.82;;;2.95;;
48665;SDS011;34452;50.796;4.994;2023-02-08T14:07:50;8.93;;;3.10;;
48665;SDS011;34452;50.796;4.994;2023-02-08T14:18:58;4.45;;;2.70;;
48665;SDS011;34452;50.796;4.994;2023-02-08T14:21:28;8.57;;;3.75;;
48665;SDS011;34452;50.796;4.994;2023-02-08T14:32:50;11.13;;;4.82;;
48665;SDS011;34452;50.796;4.994;2023-02-08T14:35:32;10.85;;;3.67;;
48665;SDS011;34452;50.796;4.994;2023-02-08T14:43:29;5.85;;;2.78;;
48665;SDS011;34452;50.796;4.994;2023-02-08T14:45:57;7.20;;;2.80;;
48665;SDS011;34452;50.796;4.994;2023-02-08T14:49:01;6.75;;;2.55;;
48665;SDS011;34452;50.796;4.994;2023-02-08T14:52:02;10.88;;;2.80;;
48665;SDS011;34452;50.796;4.994;2023-02-08T14:54:36;5.47;;;2.80;;
48665;SDS011;34452;50.796;4.994;2023-02-08T14:59:50;4.10;;;2.38;;
48665;SDS011;34452;50.796;4.994;2023-02-08T15:02:19;5.03;;;3.40;;
48665;SDS011;34452;50.796;4.994;2023-02-08T15:04:50;4.32;;;2.63;;
48665;SDS011;34452;50.796;4.994;2023-02-08T15:10:19;7.75;;;2.55;;
48665;SDS011;34452;50.796;4.994;2023-02-08T15:15:32;10.20;;;2.65;;
48665;SDS011;34452;50.796;4.994;2023-02-08T15:18:01;10.52;;;2.80;;
48665;SDS011;34452;50.796;4.994;2023-02-08T15:20:29;12.77;;;3.03;;
48665;SDS011;34452;50.796;4.994;2023-02-08T15:22:58;12.10;;;3.38;;
48665;SDS011;34452;50.796;4.994;2023-02-08T15:25:28;8.82;;;2.97;;
48665;SDS011;34452;50.796;4.994;2023-02-08T15:27:57;8.75;;;2.35;;
48665;SDS011;34452;50.796;4.994;2023-02-08T15:30:35;6.75;;;2.55;;
48665;SDS011;34452;50.796;4.994;2023-02-08T15:33:13;6.40;;;2.90;;
48665;SDS011;34452;50.796;4.994;2023-02-08T15:35:42;9.98;;;2.80;;
48665;SDS011;34452;50.796;4.994;2023-02-08T15:38:13;6.53;;;2.80;;
48665;SDS011;34452;50.796;4.994;2023-02-08T15:40:41;11.38;;;2.78;;
48665;SDS011;34452;50.796;4.994;2023-02-08T15:45:32;7.27;;;2.83;;
48665;SDS011;34452;50.796;4.994;2023-02-08T15:47:58;5.95;;;2.80;;
48665;SDS011;34452;50.796;4.994;2023-02-08T15:50:25;9.13;;;2.40;;
48665;SDS011;34452;50.796;4.994;2023-02-08T15:52:56;12.43;;;3.10;;
48665;SDS011;34452;50.796;4.994;2023-02-08T15:55:24;10.75;;;3.30;;
48665;SDS011;34452;50.796;4.994;2023-02-08T15:57:53;9.93;;;3.47;;
48665;SDS011;34452;50.796;4.994;2023-02-08T16:00:24;8.75;;;3.00;;
48665;SDS011;34452;50.796;4.994;2023-02-08T16:02:57;16.33;;;3.40;;
48665;SDS011;34452;50.796;4.994;2023-02-08T16:05:39;13.80;;;2.70;;
48665;SDS011;34452;50.796;4.994;2023-02-08T16:08:05;6.70;;;2.65;;
48665;SDS011;34452;50.796;4.994;2023-02-08T16:21:39;6.20;;;2.45;;
48665;SDS011;34452;50.796;4.994;2023-02-08T16:29:44;12.45;;;6.85;;
48665;SDS011;34452;50.796;4.994;2023-02-08T16:34:57;8.15;;;2.88;;
48665;SDS011;34452;50.796;4.994;2023-02-08T16:43:07;9.32;;;2.80;;
48665;SDS011;34452;50.796;4.994;2023-02-08T16:45:41;5.93;;;3.28;;
48665;SDS011;34452;50.796;4.994;2023-02-08T16:50:59;8.45;;;3.13;;
48665;SDS011;34452;50.796;4.994;2023-02-08T16:53:26;7.90;;;2.25;;
48665;SDS011;34452;50.796;4.994;2023-02-08T16:55:54;6.97;;;2.90;;
48665;SDS011;34452;50.796;4.994;2023-02-08T17:00:46;6.63;;;2.60;;
48665;SDS011;34452;50.796;4.994;2023-02-08T17:03:11;8.77;;;2.72;;
48665;SDS011;34452;50.796;4.994;2023-02-08T17:05:37;6.07;;;2.97;;
48665;SDS011;34452;50.796;4.994;2023-02-08T17:08:06;7.97;;;2.63;;
48665;SDS011;34452;50.796;4.994;2023-02-08T17:10:36;6.32;;;2.65;;
48665;SDS011;34452;50.796;4.994;2023-02-08T17:13:02;4.75;;;2.60;;
48665;SDS011;34452;50.796;4.994;2023-02-08T17:15:28;4.05;;;2.45;;
48665;SDS011;34452;50.796;4.994;2023-02-08T17:17:55;6.60;;;2.80;;
48665;SDS011;34452;50.796;4.994;2023-02-08T17:20:23;8.35;;;4.47;;
48665;SDS011;34452;50.796;4.994;2023-02-08T17:22:50;14.77;;;4.53;;
48665;SDS011;34452;50.796;4.994;2023-02-08T17:25:18;13.77;;;3.88;;
48665;SDS011;34452;50.796;4.994;2023-02-08T17:30:32;9.85;;;3.67;;
48665;SDS011;34452;50.796;4.994;2023-02-08T17:33:00;14.85;;;3.40;;
48665;SDS011;34452;50.796;4.994;2023-02-08T17:35:28;9.23;;;3.30;;
48665;SDS011;34452;50.796;4.994;2023-02-08T17:37:55;9.73;;;3.50;;
48665;SDS011;34452;50.796;4.994;2023-02-08T17:40:25;9.18;;;4.10;;
48665;SDS011;34452;50.796;4.994;2023-02-08T17:42:55;14.65;;;4.03;;
48665;SDS011;34452;50.796;4.994;2023-02-08T17:45:20;7.28;;;3.85;;
48665;SDS011;34452;50.796;4.994;2023-02-08T17:47:46;12.68;;;4.10;;
48665;SDS011;34452;50.796;4.994;2023-02-08T17:50:13;7.03;;;4.65;;
48665;SDS011;34452;50.796;4.994;2023-02-08T17:52:41;11.27;;;4.50;;
48665;SDS011;34452;50.796;4.994;2023-02-08T17:55:07;15.07;;;5.25;;
48665;SDS011;34452;50.796;4.994;2023-02-08T17:57:36;12.07;;;5.25;;
48665;SDS011;34452;50.796;4.994;2023-02-08T18:00:04;17.85;;;5.35;;
48665;SDS011;34452;50.796;4.994;2023-02-08T18:02:32;9.55;;;4.18;;
48665;SDS011;34452;50.796;4.994;2023-02-08T18:04:59;12.45;;;5.70;;
48665;SDS011;34452;50.796;4.994;2023-02-08T18:07:24;9.38;;;4.68;;
48665;SDS011;34452;50.796;4.994;2023-02-08T18:09:50;11.18;;;5.15;;
48665;SDS011;34452;50.796;4.994;2023-02-08T18:12:16;20.50;;;8.27;;
48665;SDS011;34452;50.796;4.994;2023-02-08T18:14:42;21.50;;;7.00;;
48665;SDS011;34452;50.796;4.994;2023-02-08T18:17:07;29.90;;;12.45;;
48665;SDS011;34452;50.796;4.994;2023-02-08T18:19:33;15.07;;;7.82;;
48665;SDS011;34452;50.796;4.994;2023-02-08T18:21:59;22.88;;;11.60;;